Bear Creek, North Carolina
Current Conditions -  °F | °C
As of 7:55 PM on Saturday 22 Nov 2014 (Local Time) from K5W8 Reporting Station
Clear Clear  
Wind Chill: 33°   Ceiling: Unl
Heat Index: 33°   Visibility: 10mi
Dew Point: 24°   Wind: 0mph
Humidity: 71%   Direction: NA
Pressure: 30.36"   Gusts: NA
Location:  35.62°N, 79.38°W
Report Text: K5W8 230055Z AUTO 00000KT 10SM CLR 01/M04 A3036 RMK AO2 T00061042
Loading
Personal Weather Stations






























Interactive Weather Map New forecast layout! Learn more

10-Day Weather Forecast

Advertisements
Track Severe Weather on mobile